Time;durP1;ratioP1;P1;durP2;ratioP2;P2;SDS_P1;SDS_P2;PMS_P1;PMS_P2;Temp;Humidity;BMP_temperature;BMP_pressure;BME280_temperature;BME280_humidity;BME280_pressure;Samples;Min_cycle;Max_cycle;Signal;HPM_P1;HPM_P2
2023/02/06 00:01:59;;;;;;;;;;;;;;;-5.76;100.00;100765.81;5031245;28;20752;-56
2023/02/06 00:04:24;;;;;;;;;;;;;;;-5.72;100.00;100762.81;5031157;28;20348;-55
2023/02/06 00:06:49;;;;;;;;;;;;;;;-5.77;100.00;100769.94;5033157;28;20490;-56
2023/02/06 00:09:15;;;;;;;;;;;;;;;-5.73;100.00;100771.09;5031711;28;19982;-54
2023/02/06 00:11:40;;;;;;;;;;;;;;;-5.73;100.00;100779.41;5032921;28;19929;-55
2023/02/06 00:14:06;;;;;;;;;;;;;;;-5.80;100.00;100791.31;5031792;28;19968;-56
2023/02/06 00:16:32;;;;;;;;;;;;;;;-5.82;100.00;100781.22;5030814;28;19971;-55
2023/02/06 00:18:58;;;;;;;;;;;;;;;-5.86;100.00;100776.72;5030788;28;19925;-57
2023/02/06 00:21:25;;;;;;;;;;;;;;;-5.78;100.00;100778.22;5038386;28;19998;-56
2023/02/06 00:23:53;;;;;;;;;;;;;;;-5.78;100.00;100772.34;5031935;28;19924;-58
2023/02/06 00:26:18;;;;;;;;;;;;;;;-5.84;100.00;100772.72;5030451;28;19967;-55
2023/02/06 00:28:45;;;;;;;;;;;;;;;-5.91;100.00;100772.13;5033638;28;20476;-55
2023/02/06 00:31:10;;;;;;;;;;;;;;;-5.86;100.00;100773.38;5031608;28;19929;-55
2023/02/06 00:33:36;;;;;;;;;;;;;;;-5.93;100.00;100782.00;5031760;28;19936;-55
2023/02/06 00:36:01;;;;;;;;;;;;;;;-6.03;100.00;100774.53;5026993;28;20447;-55
2023/02/06 00:38:28;;;;;;;;;;;;;;;-5.95;100.00;100781.03;5033883;28;20360;-58
2023/02/06 00:40:54;;;;;;;;;;;;;;;-5.96;100.00;100781.75;5064003;28;19976;-55
2023/02/06 00:43:19;;;;;;;;;;;;;;;-6.01;100.00;100788.00;5033128;28;20465;-55
2023/02/06 00:45:49;;;;;;;;;;;;;;;-6.00;100.00;100779.78;5029831;28;19929;-60
2023/02/06 00:48:15;;;;;;;;;;;;;;;-5.98;100.00;100780.75;5029636;28;20427;-55
2023/02/06 00:50:41;;;;;;;;;;;;;;;-5.96;100.00;100784.25;5031753;28;19949;-56
2023/02/06 00:53:07;;;;;;;;;;;;;;;-6.01;100.00;100788.00;5030583;28;19925;-57
2023/02/06 00:55:32;;;;;;;;;;;;;;;-6.01;100.00;100788.00;5029354;28;19952;-56
2023/02/06 00:57:58;;;;;;;;;;;;;;;-5.89;100.00;100785.59;5028994;28;19952;-56
2023/02/06 01:00:23;;;;;;;;;;;;;;;-5.98;100.00;100793.22;5030168;28;19933;-53
2023/02/06 01:02:48;;;;;;;;;;;;;;;-6.06;100.00;100785.13;5031515;28;20382;-55
2023/02/06 01:05:14;;;;;;;;;;;;;;;-6.06;100.00;100780.13;5028609;28;19976;-56
2023/02/06 01:07:39;;;;;;;;;;;;;;;-6.00;100.00;100784.75;5031218;28;20041;-55
2023/02/06 01:10:06;;;;;;;;;;;;;;;-5.96;100.00;100791.75;5028076;28;19936;-55
2023/02/06 01:12:32;;;;;;;;;;;;;;;-5.98;100.00;100784.91;5030011;28;20561;-56
2023/02/06 01:14:58;;;;;;;;;;;;;;;-5.91;100.00;100787.13;5028551;28;20406;-57
2023/02/06 01:17:23;;;;;;;;;;;;;;;-5.91;100.00;100788.00;5030361;28;19969;-55
2023/02/06 01:19:49;;;;;;;;;;;;;;;-5.91;100.00;100794.63;5034580;28;19929;-56
2023/02/06 01:22:16;;;;;;;;;;;;;;;-5.96;100.00;100794.25;5028054;28;20294;-57
2023/02/06 01:24:42;;;;;;;;;;;;;;;-6.08;100.00;100789.16;5030698;28;20304;-55
2023/02/06 01:27:09;;;;;;;;;;;;;;;-6.15;100.00;100794.38;5030224;28;19952;-54
2023/02/06 01:29:34;;;;;;;;;;;;;;;-6.24;100.00;100795.28;5025906;28;20091;-55
2023/02/06 01:32:00;;;;;;;;;;;;;;;-6.15;100.00;100799.34;5025052;28;19928;-55
2023/02/06 01:34:26;;;;;;;;;;;;;;;-6.25;100.00;100796.88;5025949;28;20026;-55
2023/02/06 01:36:51;;;;;;;;;;;;;;;-6.23;100.00;100799.47;5060582;28;19932;-55
2023/02/06 01:39:17;;;;;;;;;;;;;;;-6.24;100.00;100796.16;5028745;28;20040;-52
2023/02/06 01:41:42;;;;;;;;;;;;;;;-6.23;100.00;100790.38;5030526;28;19928;-56
2023/02/06 01:44:15;;;;;;;;;;;;;;;-6.30;100.00;100787.25;5027470;28;19929;-58
2023/02/06 01:46:42;;;;;;;;;;;;;;;-6.24;100.00;100782.78;5026860;28;19931;-54
2023/02/06 01:49:11;;;;;;;;;;;;;;;-6.23;100.00;100780.41;5027356;28;19934;-56
2023/02/06 01:51:36;;;;;;;;;;;;;;;-6.19;100.00;100776.53;5029961;28;19925;-56
2023/02/06 01:54:04;;;;;;;;;;;;;;;-6.12;100.00;100783.78;5027983;28;20466;-55
2023/02/06 01:56:35;;;;;;;;;;;;;;;-6.09;100.00;100779.03;5026963;28;19995;-55
2023/02/06 01:59:01;;;;;;;;;;;;;;;-6.09;100.00;100777.41;5029784;28;19925;-55
2023/02/06 02:01:28;;;;;;;;;;;;;;;-6.01;100.00;100768.03;5030451;28;19924;-55
2023/02/06 02:03:56;;;;;;;;;;;;;;;-6.02;100.00;100764.66;5061022;28;19929;-55
2023/02/06 02:06:23;;;;;;;;;;;;;;;-6.00;100.00;100767.28;5045698;28;20447;-57
2023/02/06 02:08:51;;;;;;;;;;;;;;;-6.01;100.00;100758.91;5028725;28;19925;-55
2023/02/06 02:11:19;;;;;;;;;;;;;;;-5.95;100.00;100766.03;5042443;28;19928;-54
2023/02/06 02:13:44;;;;;;;;;;;;;;;-5.95;100.00;100768.53;5029233;28;19929;-56
2023/02/06 02:16:09;;;;;;;;;;;;;;;-6.01;100.00;100768.91;5029508;28;19976;-57
2023/02/06 02:18:49;;;;;;;;;;;;;;;-6.00;100.00;100772.28;5028654;28;20411;-57
2023/02/06 02:21:26;;;;;;;;;;;;;;;-6.07;100.00;100763.41;5028882;28;19935;-56
2023/02/06 02:23:52;;;;;;;;;;;;;;;-6.06;100.00;100764.28;5029490;28;19982;-55
2023/02/06 02:26:37;;;;;;;;;;;;;;;-5.92;100.00;100760.41;5031794;28;20404;-54
2023/02/06 02:29:19;;;;;;;;;;;;;;;-5.90;100.00;100758.91;5031171;28;19997;-54
2023/02/06 02:32:03;;;;;;;;;;;;;;;-5.85;100.00;100760.97;5030550;28;19936;-60
2023/02/06 02:34:41;;;;;;;;;;;;;;;-5.86;100.00;100750.91;5032854;28;19999;-54
2023/02/06 02:37:06;;;;;;;;;;;;;;;-5.93;100.00;100764.50;5035686;28;19933;-53
2023/02/06 02:39:41;;;;;;;;;;;;;;;-5.91;100.00;100758.03;5028380;28;19924;-56
2023/02/06 02:42:12;;;;;;;;;;;;;;;-6.01;100.00;100753.06;5049686;28;20304;-56
2023/02/06 02:44:43;;;;;;;;;;;;;;;-5.96;100.00;100755.91;5031344;28;20377;-54
2023/02/06 02:47:11;;;;;;;;;;;;;;;-6.03;100.00;100752.94;5031831;28;19940;-54
2023/02/06 02:49:38;;;;;;;;;;;;;;;-6.00;100.00;100747.31;5032658;28;19924;-56
2023/02/06 02:52:04;;;;;;;;;;;;;;;-5.99;100.00;100739.09;5063687;28;20050;-54
2023/02/06 02:54:30;;;;;;;;;;;;;;;-6.03;100.00;100745.47;5064668;28;20380;-55
2023/02/06 02:57:04;;;;;;;;;;;;;;;-6.03;100.00;100752.06;5034618;28;20366;-55
2023/02/06 02:59:34;;;;;;;;;;;;;;;-6.02;100.00;100751.28;5030970;28;20343;-55
2023/02/06 03:02:01;;;;;;;;;;;;;;;-6.00;100.00;100739.81;5031105;28;19925;-53
2023/02/06 03:04:41;;;;;;;;;;;;;;;-5.96;100.00;100745.94;5063902;28;20269;-56
2023/02/06 03:07:16;;;;;;;;;;;;;;;-5.96;100.00;100746.81;5031240;28;19924;-56
2023/02/06 03:09:52;;;;;;;;;;;;;;;-6.02;100.00;100757.16;5030005;28;20062;-59
2023/02/06 03:12:31;;;;;;;;;;;;;;;-5.97;100.00;100752.53;5030692;28;19955;-54
2023/02/06 03:14:59;;;;;;;;;;;;;;;-5.94;100.00;100752.78;5028881;28;19929;-56
2023/02/06 03:17:34;;;;;;;;;;;;;;;-5.91;100.00;100754.66;5032909;28;20344;-55
2023/02/06 03:20:01;;;;;;;;;;;;;;;-5.95;100.00;100752.69;5033417;28;20430;-56
2023/02/06 03:22:27;;;;;;;;;;;;;;;-5.93;100.00;100751.16;5031886;28;19925;-56
2023/02/06 03:24:54;;;;;;;;;;;;;;;-5.88;100.00;100758.28;5030967;28;20457;-56
2023/02/06 03:27:21;;;;;;;;;;;;;;;-5.89;100.00;100756.53;5033116;28;20295;-55
2023/02/06 03:29:49;;;;;;;;;;;;;;;-5.88;100.00;100745.78;5032814;28;19961;-55
2023/02/06 03:32:18;;;;;;;;;;;;;;;-5.80;100.00;100758.84;5032117;28;19929;-56
2023/02/06 03:34:49;;;;;;;;;;;;;;;-5.80;100.00;100763.84;5030260;28;19932;-57
2023/02/06 03:37:15;;;;;;;;;;;;;;;-5.83;100.00;100761.97;5033134;28;19979;-56
2023/02/06 03:39:41;;;;;;;;;;;;;;;-5.83;100.00;100758.59;5032511;28;19929;-55
2023/02/06 03:42:09;;;;;;;;;;;;;;;-5.91;100.00;100763.03;5032320;28;19994;-55
2023/02/06 03:44:38;;;;;;;;;;;;;;;-5.91;100.00;100755.53;5029890;28;19929;-56
2023/02/06 03:47:06;;;;;;;;;;;;;;;-5.87;100.00;100761.66;5031020;28;19929;-55
2023/02/06 03:49:34;;;;;;;;;;;;;;;-5.91;100.00;100759.66;5033089;28;19921;-54
2023/02/06 03:52:05;;;;;;;;;;;;;;;-5.82;100.00;100765.34;5032053;28;20386;-55
2023/02/06 03:54:32;;;;;;;;;;;;;;;-5.81;100.00;100754.63;5030119;28;19928;-54
2023/02/06 03:57:02;;;;;;;;;;;;;;;-5.77;100.00;100749.97;5032443;28;20288;-55
2023/02/06 03:59:28;;;;;;;;;;;;;;;-5.80;100.00;100742.22;5032825;28;19925;-55
2023/02/06 04:01:55;;;;;;;;;;;;;;;-5.80;100.00;100744.72;5030861;28;19924;-55
2023/02/06 04:04:27;;;;;;;;;;;;;;;-5.82;100.00;100737.88;5030965;28;19924;-57
2023/02/06 04:07:01;;;;;;;;;;;;;;;-5.83;100.00;100746.13;5031346;28;19955;-55
2023/02/06 04:09:27;;;;;;;;;;;;;;;-5.79;100.00;100753.09;5031710;28;19924;-55
2023/02/06 04:11:52;;;;;;;;;;;;;;;-5.79;100.00;100746.50;5033494;28;20002;-57
2023/02/06 04:14:18;;;;;;;;;;;;;;;-5.85;100.00;100750.97;5032254;28;19932;-56
2023/02/06 04:16:43;;;;;;;;;;;;;;;-5.78;100.00;100753.22;5030808;28;20412;-56
2023/02/06 04:19:09;;;;;;;;;;;;;;;-5.77;100.00;100749.97;5031254;28;20019;-54
2023/02/06 04:21:37;;;;;;;;;;;;;;;-5.79;100.00;100750.59;5031109;28;19925;-52
2023/02/06 04:24:03;;;;;;;;;;;;;;;-5.77;100.00;100751.63;5030930;28;19932;-55
2023/02/06 04:26:28;;;;;;;;;;;;;;;-5.72;100.00;100748.69;5031280;28;20467;-56
2023/02/06 04:28:54;;;;;;;;;;;;;;;-5.63;100.00;100739.44;5030961;28;19968;-57
2023/02/06 04:31:19;;;;;;;;;;;;;;;-5.65;100.00;100740.09;5031894;28;19929;-59
2023/02/06 04:33:45;;;;;;;;;;;;;;;-5.65;100.00;100738.47;5035080;28;20402;-54
2023/02/06 04:36:10;;;;;;;;;;;;;;;-5.75;100.00;100740.09;5032812;28;20339;-53
2023/02/06 04:38:35;;;;;;;;;;;;;;;-5.74;100.00;100744.34;5035187;28;19933;-55
2023/02/06 04:41:05;;;;;;;;;;;;;;;-5.76;100.00;100741.72;5030709;28;20341;-52
2023/02/06 04:43:30;;;;;;;;;;;;;;;-5.72;100.00;100751.19;5031782;28;20046;-53
2023/02/06 04:45:56;;;;;;;;;;;;;;;-5.66;100.00;100754.19;5030250;28;19959;-57
2023/02/06 04:48:21;;;;;;;;;;;;;;;-5.72;100.00;100752.81;5028962;28;19929;-57
2023/02/06 04:50:48;;;;;;;;;;;;;;;-5.73;100.00;100756.94;5032579;28;19929;-54
2023/02/06 04:53:14;;;;;;;;;;;;;;;-5.70;100.00;100756.31;5031749;28;20024;-54
2023/02/06 04:55:39;;;;;;;;;;;;;;;-5.79;100.00;100756.47;5031705;28;20004;-55
2023/02/06 04:58:05;;;;;;;;;;;;;;;-5.74;100.00;100760.22;5031606;28;19978;-55
2023/02/06 05:00:30;;;;;;;;;;;;;;;-5.58;100.00;100754.78;5029350;28;19925;-54
2023/02/06 05:02:56;;;;;;;;;;;;;;;-5.55;100.00;100748.41;5030039;28;20521;-53
2023/02/06 05:05:21;;;;;;;;;;;;;;;-5.49;100.00;100752.13;5027609;28;20535;-54
2023/02/06 05:07:47;;;;;;;;;;;;;;;-5.45;100.00;100737.50;5030066;28;19935;-57
2023/02/06 05:10:13;;;;;;;;;;;;;;;-5.36;100.00;100734.84;5030110;28;19937;-55
2023/02/06 05:12:39;;;;;;;;;;;;;;;-5.43;100.00;100735.97;5030993;28;19928;-55
2023/02/06 05:15:05;;;;;;;;;;;;;;;-5.38;100.00;100728.84;5026134;28;20417;-55
2023/02/06 05:17:30;;;;;;;;;;;;;;;-5.35;100.00;100726.59;5029236;28;20043;-55
2023/02/06 05:19:55;;;;;;;;;;;;;;;-5.44;100.00;100735.88;5029539;28;19987;-54
2023/02/06 05:22:21;;;;;;;;;;;;;;;-5.48;100.00;100729.78;5029438;28;19968;-57
2023/02/06 05:24:47;;;;;;;;;;;;;;;-5.44;100.00;100735.88;5030421;28;19979;-55
2023/02/06 05:27:12;;;;;;;;;;;;;;;-5.51;100.00;100734.50;5030797;28;19929;-54
2023/02/06 05:29:38;;;;;;;;;;;;;;;-5.52;100.00;100733.63;5036354;28;20395;-59
2023/02/06 05:32:03;;;;;;;;;;;;;;;-5.59;100.00;100741.41;5035135;28;20323;-58
2023/02/06 05:34:28;;;;;;;;;;;;;;;-5.64;100.00;100740.19;5033544;28;19929;-56
2023/02/06 05:36:54;;;;;;;;;;;;;;;-5.69;100.00;100733.09;5024406;28;20394;-55
2023/02/06 05:39:20;;;;;;;;;;;;;;;-5.72;100.00;100725.34;5028247;28;19952;-55
2023/02/06 05:41:45;;;;;;;;;;;;;;;-5.76;100.00;100734.22;5031013;28;19929;-57
2023/02/06 05:44:11;;;;;;;;;;;;;;;-5.77;100.00;100732.47;5029383;28;20047;-55
2023/02/06 05:46:37;;;;;;;;;;;;;;;-5.73;100.00;100733.63;5029173;28;19975;-56
2023/02/06 05:49:02;;;;;;;;;;;;;;;-5.72;100.00;100723.72;5029771;28;20321;-55
2023/02/06 05:51:27;;;;;;;;;;;;;;;-5.71;100.00;100727.97;5029255;28;19929;-59
2023/02/06 05:53:53;;;;;;;;;;;;;;;-5.67;100.00;100727.47;5028957;28;19936;-56
2023/02/06 05:56:18;;;;;;;;;;;;;;;-5.65;100.00;100728.47;5032410;28;20375;-54
2023/02/06 05:58:44;;;;;;;;;;;;;;;-5.74;100.00;100725.25;5028652;28;20562;-56
2023/02/06 06:01:10;;;;;;;;;;;;;;;-5.80;100.00;100724.75;5029379;28;20431;-57
2023/02/06 06:03:37;;;;;;;;;;;;;;;-5.85;100.00;100725.13;5044315;28;20024;-56
2023/02/06 06:06:03;;;;;;;;;;;;;;;-5.93;100.00;100714.59;5031613;28;19933;-57
2023/02/06 06:08:28;;;;;;;;;;;;;;;-5.88;100.00;100712.44;5028997;28;19976;-54
2023/02/06 06:10:54;;;;;;;;;;;;;;;-5.87;100.00;100720.06;5027901;28;19937;-55
2023/02/06 06:13:19;;;;;;;;;;;;;;;-5.91;100.00;100715.59;5028726;28;20316;-56
2023/02/06 06:15:48;;;;;;;;;;;;;;;-5.94;100.00;100716.97;5030852;28;19929;-54
2023/02/06 06:18:14;;;;;;;;;;;;;;;-6.05;100.00;100712.00;5027362;28;20277;-54
2023/02/06 06:20:40;;;;;;;;;;;;;;;-6.03;100.00;100717.13;5027500;28;19929;-54
2023/02/06 06:23:05;;;;;;;;;;;;;;;-6.03;100.00;100722.13;5028389;28;19932;-54
2023/02/06 06:25:31;;;;;;;;;;;;;;;-5.95;100.00;100713.59;5027855;28;20372;-58
2023/02/06 06:27:56;;;;;;;;;;;;;;;-5.94;100.00;100715.31;5028594;28;19928;-57
2023/02/06 06:30:22;;;;;;;;;;;;;;;-5.96;100.00;100710.97;5027457;28;20352;-56
2023/02/06 06:32:50;;;;;;;;;;;;;;;-6.01;100.00;100705.63;5036867;28;19929;-54
2023/02/06 06:35:16;;;;;;;;;;;;;;;-6.00;100.00;100714.84;5027553;28;19976;-58
2023/02/06 06:37:41;;;;;;;;;;;;;;;-5.97;100.00;100714.22;5027947;28;20032;-52
2023/02/06 06:40:07;;;;;;;;;;;;;;;-5.96;100.00;100711.84;5059373;28;19978;-54
2023/02/06 06:42:33;;;;;;;;;;;;;;;-5.96;100.00;100709.34;5022195;28;19928;-54
2023/02/06 06:44:58;;;;;;;;;;;;;;;-5.96;100.00;100711.84;5027016;28;20015;-54
2023/02/06 06:47:23;;;;;;;;;;;;;;;-5.91;100.00;100702.22;5028229;28;20300;-59
2023/02/06 06:49:49;;;;;;;;;;;;;;;-5.92;100.00;100698.84;5027836;28;20402;-61
2023/02/06 06:52:14;;;;;;;;;;;;;;;-5.84;100.00;100699.41;5024160;28;19936;-59
2023/02/06 06:54:40;;;;;;;;;;;;;;;-5.80;100.00;100702.28;5023886;28;19925;-54
2023/02/06 06:57:05;;;;;;;;;;;;;;;-5.71;100.00;100700.50;5027315;28;20326;-56
2023/02/06 06:59:31;;;;;;;;;;;;;;;-5.63;100.00;100699.47;5059293;28;19929;-53
2023/02/06 07:01:56;;;;;;;;;;;;;;;-5.56;100.00;100706.69;5028467;28;20494;-52
2023/02/06 07:04:22;;;;;;;;;;;;;;;-5.46;100.00;100694.91;5025865;28;20366;-54
2023/02/06 07:06:47;;;;;;;;;;;;;;;-5.40;100.00;100700.38;5026516;28;20531;-53
2023/02/06 07:09:13;;;;;;;;;;;;;;;-5.35;100.00;100696.63;5033946;28;19925;-52
2023/02/06 07:11:38;;;;;;;;;;;;;;;-5.27;100.00;100698.06;5023891;28;20523;-55
2023/02/06 07:14:04;;;;;;;;;;;;;;;-5.20;100.00;100692.75;5027640;28;19933;-53
2023/02/06 07:16:29;;;;;;;;;;;;;;;-5.14;100.00;100694.13;5028274;28;20450;-55
2023/02/06 07:18:57;;;;;;;;;;;;;;;-5.05;100.00;100696.44;5027499;28;20242;-56
2023/02/06 07:21:23;;;;;;;;;;;;;;;-5.04;100.00;100684.78;5047476;28;19925;-54
2023/02/06 07:23:48;;;;;;;;;;;;;;;-5.02;100.00;100685.78;5031655;28;20014;-53
2023/02/06 07:26:14;;;;;;;;;;;;;;;-4.98;100.00;100696.13;5030570;28;19987;-54
2023/02/06 07:28:41;;;;;;;;;;;;;;;-4.99;100.00;100701.88;5066028;28;19929;-55
2023/02/06 07:31:06;;;;;;;;;;;;;;;-4.98;100.00;100711.13;5033032;28;19931;-56
2023/02/06 07:33:32;;;;;;;;;;;;;;;-4.94;100.00;100703.09;5045453;28;20362;-53
2023/02/06 07:35:58;;;;;;;;;;;;;;;-4.94;100.00;100703.09;5029578;28;19932;-55
2023/02/06 07:38:25;;;;;;;;;;;;;;;-4.93;100.00;100712.34;5031836;28;19924;-61
2023/02/06 07:40:50;;;;;;;;;;;;;;;-4.80;100.00;100710.03;5030236;28;19932;-56
2023/02/06 07:43:16;;;;;;;;;;;;;;;-4.76;100.00;100704.50;5033715;28;20320;-57
2023/02/06 07:45:42;;;;;;;;;;;;;;;-4.79;100.00;100703.38;5061388;28;19929;-58
2023/02/06 07:48:07;;;;;;;;;;;;;;;-4.71;100.00;100707.34;5030081;28;20055;-58
2023/02/06 07:50:33;;;;;;;;;;;;;;;-4.63;100.00;100704.66;5031142;28;20036;-58
2023/02/06 07:52:59;;;;;;;;;;;;;;;-4.61;100.00;100703.09;5026144;28;20462;-56
2023/02/06 07:55:24;;;;;;;;;;;;;;;-4.52;100.00;100702.03;5027070;28;20380;-56
2023/02/06 07:57:50;;;;;;;;;;;;;;;-4.47;100.00;100710.75;5027485;28;19929;-56
2023/02/06 08:00:19;;;;;;;;;;;;;;;-4.29;100.00;100697.97;5026744;28;19936;-56
2023/02/06 08:02:44;;;;;;;;;;;;;;;-4.09;100.00;100693.50;5026055;28;19972;-53
2023/02/06 08:05:10;;;;;;;;;;;;;;;-4.04;100.00;100692.22;5025743;28;20467;-54
2023/02/06 08:07:35;;;;;;;;;;;;;;;-3.89;100.00;100691.66;5026412;28;20368;-55
2023/02/06 08:10:00;;;;;;;;;;;;;;;-3.73;100.00;100694.47;5026523;28;19928;-54
2023/02/06 08:12:28;;;;;;;;;;;;;;;-3.62;100.00;100690.22;5027408;28;20032;-52
2023/02/06 08:14:53;;;;;;;;;;;;;;;-3.51;100.00;100693.47;5026525;28;20482;-55
2023/02/06 08:17:20;;;;;;;;;;;;;;;-3.51;100.00;100690.94;5026805;28;20363;-53
2023/02/06 08:19:47;;;;;;;;;;;;;;;-3.28;100.00;100693.44;5029749;28;20853;-53
2023/02/06 08:22:13;;;;;;;;;;;;;;;-3.10;100.00;100684.66;5028664;28;19955;-53
2023/02/06 08:24:38;;;;;;;;;;;;;;;-3.12;100.00;100696.19;5020771;28;19936;-54
2023/02/06 08:27:05;;;;;;;;;;;;;;;-3.10;100.00;100693.81;5023627;28;20316;-55
2023/02/06 08:29:31;;;;;;;;;;;;;;;-3.03;100.00;100690.94;5026400;28;19929;-54
2023/02/06 08:31:57;;;;;;;;;;;;;;;-3.04;100.00;100694.22;5020659;28;19988;-54
2023/02/06 08:34:22;;;;;;;;;;;;;;;-2.97;100.00;100694.72;5027512;28;20426;-55
2023/02/06 08:36:47;;;;;;;;;;;;;;;-2.88;100.00;100700.34;5027362;28;19925;-54
2023/02/06 08:39:14;;;;;;;;;;;;;;;-2.84;100.00;100696.41;5059587;28;20414;-54
2023/02/06 08:41:40;;;;;;;;;;;;;;;-2.91;100.00;100697.66;5027870;28;19929;-51
2023/02/06 08:44:10;;;;;;;;;;;;;;;-2.76;100.00;100700.34;5029858;28;19933;-54
2023/02/06 08:46:36;;;;;;;;;;;;;;;-2.55;100.00;100700.88;5025467;28;19929;-53
2023/02/06 08:49:04;;;;;;;;;;;;;;;-2.63;100.00;100702.84;5025124;28;20030;-57
2023/02/06 08:51:34;;;;;;;;;;;;;;;-2.48;100.00;100710.53;5025726;28;19959;-53
2023/02/06 08:54:00;;;;;;;;;;;;;;;-2.49;100.00;100717.19;5026753;28;20217;-54
2023/02/06 08:56:26;;;;;;;;;;;;;;;-2.27;100.00;100718.59;5027243;28;19929;-60
2023/02/06 08:58:52;;;;;;;;;;;;;;;-2.26;100.00;100708.66;5026530;28;20438;-54
2023/02/06 09:01:18;;;;;;;;;;;;;;;-2.19;100.00;100705.78;5025348;28;19932;-54
2023/02/06 09:03:44;;;;;;;;;;;;;;;-1.68;100.00;100717.38;5025992;28;19968;-55
2023/02/06 09:06:10;;;;;;;;;;;;;;;-1.52;100.00;100717.56;5026115;28;20522;-51
2023/02/06 09:08:35;;;;;;;;;;;;;;;-1.29;100.00;100714.84;5027463;28;20027;-54
2023/02/06 09:11:05;;;;;;;;;;;;;;;-1.32;100.00;100724.72;5029939;28;19929;-53
2023/02/06 09:13:31;;;;;;;;;;;;;;;-1.24;100.00;100723.53;5028631;28;20067;-53
2023/02/06 09:15:56;;;;;;;;;;;;;;;-0.94;100.00;100719.50;5025284;28;20490;-54
2023/02/06 09:18:22;;;;;;;;;;;;;;;-0.43;100.00;100719.19;5025918;28;20529;-54
2023/02/06 09:20:48;;;;;;;;;;;;;;;-0.43;100.00;100715.78;5028472;28;19929;-55
2023/02/06 09:23:16;;;;;;;;;;;;;;;-0.23;100.00;100718.66;5024526;28;19929;-56
2023/02/06 09:25:43;;;;;;;;;;;;;;;-0.63;95.43;100724.66;5057924;28;19926;-57
2023/02/06 09:28:09;;;;;;;;;;;;;;;-0.89;97.18;100727.31;5028714;28;19998;-56
2023/02/06 09:30:34;;;;;;;;;;;;;;;-1.01;97.10;100728.31;5029742;28;19925;-51
2023/02/06 09:33:00;;;;;;;;;;;;;;;-1.06;99.90;100737.22;5029072;28;20467;-63
2023/02/06 09:35:25;;;;;;;;;;;;;;;-1.45;98.51;100732.28;5025853;28;19929;-53
2023/02/06 09:37:51;;;;;;;;;;;;;;;-1.50;99.75;100734.50;5026220;28;19936;-58
2023/02/06 09:40:19;;;;;;;;;;;;;;;-1.24;100.00;100735.25;5029241;28;19949;-55
2023/02/06 09:42:46;;;;;;;;;;;;;;;-0.90;100.00;100715.50;5028544;28;20288;-55
2023/02/06 09:45:16;;;;;;;;;;;;;;;-0.62;98.67;100729.81;5027408;28;20364;-54
2023/02/06 09:47:47;;;;;;;;;;;;;;;-1.45;100.00;100732.28;5025451;28;20488;-53
2023/02/06 09:50:15;;;;;;;;;;;;;;;-1.06;100.00;100723.78;5027680;28;19925;-54
2023/02/06 09:52:53;;;;;;;;;;;;;;;-0.43;98.52;100716.66;5024779;28;20434;-55
2023/02/06 09:55:37;;;;;;;;;;;;;;;0.19;93.77;100721.84;5024016;28;20328;-56
2023/02/06 09:58:12;;;;;;;;;;;;;;;0.37;88.10;100702.69;5027639;28;20455;-54
2023/02/06 10:00:50;;;;;;;;;;;;;;;0.07;88.69;100695.97;5025778;28;19936;-56
2023/02/06 10:03:21;;;;;;;;;;;;;;;0.16;88.12;100696.47;5023558;28;20055;-57
2023/02/06 10:05:47;;;;;;;;;;;;;;;-0.08;87.74;100694.31;5027598;28;20019;-55
2023/02/06 10:08:18;;;;;;;;;;;;;;;-0.01;87.76;100691.38;5026299;28;19925;-56
2023/02/06 10:10:49;;;;;;;;;;;;;;;-0.04;88.44;100687.78;5027357;28;20368;-54
2023/02/06 10:13:33;;;;;;;;;;;;;;;-0.22;88.25;100676.69;5028018;28;19967;-56
2023/02/06 10:16:09;;;;;;;;;;;;;;;-0.09;88.64;100677.47;5036062;28;20537;-53
2023/02/06 10:18:38;;;;;;;;;;;;;;;-0.52;90.31;100676.69;5027516;28;19940;-55
2023/02/06 10:21:09;;;;;;;;;;;;;;;-0.30;90.20;100661.16;5027783;28;19928;-56
2023/02/06 10:23:53;;;;;;;;;;;;;;;-0.19;87.33;100664.25;5026419;28;19925;-52
2023/02/06 10:26:21;;;;;;;;;;;;;;;-0.36;86.11;100658.25;5025082;28;20647;-56
2023/02/06 10:28:50;;;;;;;;;;;;;;;-0.59;85.92;100661.09;5020559;28;20379;-59
2023/02/06 10:31:19;;;;;;;;;;;;;;;-0.54;88.31;100657.22;5018948;28;19932;-54
2023/02/06 10:34:08;;;;;;;;;;;;;;;-0.67;88.31;100655.63;5024110;28;19936;-56
2023/02/06 10:36:33;;;;;;;;;;;;;;;-0.58;86.64;100640.19;4999075;28;19964;-55
2023/02/06 10:38:59;;;;;;;;;;;;;;;-0.45;85.82;100640.09;5013452;28;20051;-55
2023/02/06 10:41:50;;;;;;;;;;;;;;;-0.38;86.46;100632.09;5012819;28;20019;-56
2023/02/06 10:44:26;;;;;;;;;;;;;;;-0.39;86.29;100632.03;5007911;28;20052;-56
2023/02/06 10:46:53;;;;;;;;;;;;;;;-0.29;84.82;100616.63;5013734;28;19925;-56
2023/02/06 10:49:26;;;;;;;;;;;;;;;-0.08;85.67;100610.25;5017074;28;20251;-55
2023/02/06 10:51:57;;;;;;;;;;;;;;;-0.03;82.93;100608.84;5017971;28;20491;-56
2023/02/06 10:54:22;;;;;;;;;;;;;;;0.04;81.10;100605.91;5016400;28;19933;-56
2023/02/06 10:56:48;;;;;;;;;;;;;;;-0.04;80.84;100607.97;5018379;28;20403;-55
2023/02/06 10:59:23;;;;;;;;;;;;;;;-0.07;81.43;100610.34;5016563;28;20320;-55
2023/02/06 11:01:54;;;;;;;;;;;;;;;0.07;81.49;100601.03;5018201;28;19925;-54
2023/02/06 11:04:23;;;;;;;;;;;;;;;0.25;80.14;100583.50;5017587;28;19925;-56
2023/02/06 11:06:51;;;;;;;;;;;;;;;0.20;79.51;100592.47;5018578;28;20518;-56
2023/02/06 11:09:17;;;;;;;;;;;;;;;0.24;78.66;100586.78;5017239;28;19929;-56
2023/02/06 11:11:46;;;;;;;;;;;;;;;0.19;79.18;100585.69;5017447;28;20483;-54
2023/02/06 11:14:15;;;;;;;;;;;;;;;0.08;79.41;100572.50;5025912;28;19935;-55
2023/02/06 11:16:40;;;;;;;;;;;;;;;0.19;79.54;100578.97;5028248;28;19925;-56
2023/02/06 11:19:18;;;;;;;;;;;;;;;0.13;78.60;100575.28;5026647;28;19936;-53
2023/02/06 11:21:43;;;;;;;;;;;;;;;0.11;80.11;100579.34;5029063;28;19924;-54
2023/02/06 11:24:10;;;;;;;;;;;;;;;0.12;79.65;100581.97;5029613;28;19964;-56
2023/02/06 11:26:40;;;;;;;;;;;;;;;0.25;79.46;100573.41;5029059;28;19925;-56
2023/02/06 11:29:13;;;;;;;;;;;;;;;0.50;78.83;100578.06;5028839;28;19968;-54
2023/02/06 11:31:41;;;;;;;;;;;;;;;0.52;76.16;100574.81;5026182;28;20367;-57
2023/02/06 11:34:17;;;;;;;;;;;;;;;0.82;74.58;100575.53;5027176;28;19925;-55
2023/02/06 11:36:43;;;;;;;;;;;;;;;0.84;71.36;100579.88;5031134;28;19924;-57
2023/02/06 11:39:21;;;;;;;;;;;;;;;0.93;67.97;100576.97;5012163;28;19931;-55
2023/02/06 11:41:57;;;;;;;;;;;;;;;0.80;67.97;100570.44;5026042;28;20464;-54
2023/02/06 11:44:26;;;;;;;;;;;;;;;0.55;66.03;100569.09;5016485;28;19939;-59
2023/02/06 11:46:52;;;;;;;;;;;;;;;0.56;66.65;100570.81;5025704;28;20043;-55
2023/02/06 11:49:26;;;;;;;;;;;;;;;0.45;70.44;100570.25;5028092;28;19928;-52
2023/02/06 11:51:58;;;;;;;;;;;;;;;0.57;70.74;100568.38;5029174;28;20328;-54
2023/02/06 11:54:28;;;;;;;;;;;;;;;0.45;71.33;100571.13;5062053;28;19933;-53
2023/02/06 11:57:06;;;;;;;;;;;;;;;0.60;71.40;100568.53;5029337;28;20505;-54
2023/02/06 11:59:33;;;;;;;;;;;;;;;0.41;71.50;100569.25;5028853;28;20411;-57
2023/02/06 12:02:00;;;;;;;;;;;;;;;0.33;72.69;100565.44;5035994;28;20039;-54
2023/02/06 12:04:36;;;;;;;;;;;;;;;0.44;73.44;100566.00;5028700;28;19924;-54
2023/02/06 12:07:21;;;;;;;;;;;;;;;0.49;73.11;100564.59;5027909;28;19925;-55
2023/02/06 12:09:47;;;;;;;;;;;;;;;0.58;73.11;100556.63;5024107;28;20195;-58
2023/02/06 12:12:12;;;;;;;;;;;;;;;0.63;74.42;100562.78;5021380;28;19940;-53
2023/02/06 12:14:45;;;;;;;;;;;;;;;0.81;72.27;100559.50;5025615;28;20235;-56
2023/02/06 12:17:29;;;;;;;;;;;;;;;0.65;78.50;100554.47;5024928;28;20490;-55
2023/02/06 12:20:04;;;;;;;;;;;;;;;0.36;83.26;100552.13;5025512;28;19925;-58
2023/02/06 12:22:34;;;;;;;;;;;;;;;0.44;85.32;100545.81;5025713;28;20020;-56
2023/02/06 12:25:00;;;;;;;;;;;;;;;0.56;84.32;100546.44;5027097;28;19932;-55
2023/02/06 12:27:40;;;;;;;;;;;;;;;0.56;83.10;100538.88;5026943;28;19925;-56
2023/02/06 12:30:21;;;;;;;;;;;;;;;0.56;82.15;100543.91;5027471;28;19925;-55
2023/02/06 12:32:48;;;;;;;;;;;;;;;0.72;82.80;100541.38;5028566;28;19925;-54
2023/02/06 12:35:20;;;;;;;;;;;;;;;0.74;82.45;100529.72;5026593;28;19994;-52